sensor_id;sensor_type;location;lat;lon;timestamp;temperature;humidity
25582;DHT22;13462;50.764;4.332;2024-01-10T00:01:59;-4.10;99.90
25582;DHT22;13462;50.764;4.332;2024-01-10T00:04:24;-4.10;99.90
25582;DHT22;13462;50.764;4.332;2024-01-10T00:06:50;-4.20;99.90
25582;DHT22;13462;50.764;4.332;2024-01-10T00:09:16;-4.20;99.90
25582;DHT22;13462;50.764;4.332;2024-01-10T00:11:41;-4.20;99.90
25582;DHT22;13462;50.764;4.332;2024-01-10T00:14:07;-4.20;99.90
25582;DHT22;13462;50.764;4.332;2024-01-10T00:16:33;-4.10;99.90
25582;DHT22;13462;50.764;4.332;2024-01-10T00:18:58;-4.10;99.90
25582;DHT22;13462;50.764;4.332;2024-01-10T00:21:24;-4.10;99.90
25582;DHT22;13462;50.764;4.332;2024-01-10T00:23:50;-4.20;99.90
25582;DHT22;13462;50.764;4.332;2024-01-10T00:26:15;-4.20;99.90
25582;DHT22;13462;50.764;4.332;2024-01-10T00:28:42;-4.20;99.90
25582;DHT22;13462;50.764;4.332;2024-01-10T00:31:08;-4.20;99.90
25582;DHT22;13462;50.764;4.332;2024-01-10T00:33:33;-4.30;99.90
25582;DHT22;13462;50.764;4.332;2024-01-10T00:35:59;-4.30;99.90
25582;DHT22;13462;50.764;4.332;2024-01-10T00:38:25;-4.40;99.90
25582;DHT22;13462;50.764;4.332;2024-01-10T00:40:51;-4.30;99.90
25582;DHT22;13462;50.764;4.332;2024-01-10T00:43:16;-4.40;99.90
25582;DHT22;13462;50.764;4.332;2024-01-10T00:45:42;-4.40;99.90
25582;DHT22;13462;50.764;4.332;2024-01-10T00:48:08;-4.30;99.90
25582;DHT22;13462;50.764;4.332;2024-01-10T00:50:33;-4.40;99.90
25582;DHT22;13462;50.764;4.332;2024-01-10T00:52:59;-4.30;99.90
25582;DHT22;13462;50.764;4.332;2024-01-10T00:55:25;-4.40;99.90
25582;DHT22;13462;50.764;4.332;2024-01-10T00:57:50;-4.30;99.90
25582;DHT22;13462;50.764;4.332;2024-01-10T01:00:16;-4.40;99.90
25582;DHT22;13462;50.764;4.332;2024-01-10T01:02:42;-4.40;99.90
25582;DHT22;13462;50.764;4.332;2024-01-10T01:05:08;-4.40;99.90
25582;DHT22;13462;50.764;4.332;2024-01-10T01:07:34;-4.50;99.90
25582;DHT22;13462;50.764;4.332;2024-01-10T01:09:59;-4.50;99.90
25582;DHT22;13462;50.764;4.332;2024-01-10T01:12:25;-4.50;99.90
25582;DHT22;13462;50.764;4.332;2024-01-10T01:14:54;-4.50;99.90
25582;DHT22;13462;50.764;4.332;2024-01-10T01:17:21;-4.60;99.90
25582;DHT22;13462;50.764;4.332;2024-01-10T01:19:46;-4.50;99.90
25582;DHT22;13462;50.764;4.332;2024-01-10T01:22:12;-4.60;99.90
25582;DHT22;13462;50.764;4.332;2024-01-10T01:24:50;-4.60;99.90
25582;DHT22;13462;50.764;4.332;2024-01-10T01:27:16;-4.60;99.90
25582;DHT22;13462;50.764;4.332;2024-01-10T01:29:42;-4.60;99.90
25582;DHT22;13462;50.764;4.332;2024-01-10T01:38:45;-4.60;99.90
25582;DHT22;13462;50.764;4.332;2024-01-10T01:50:57;-4.70;99.90
25582;DHT22;13462;50.764;4.332;2024-01-10T01:53:40;-4.70;99.90
25582;DHT22;13462;50.764;4.332;2024-01-10T02:20:07;-4.80;99.90
25582;DHT22;13462;50.764;4.332;2024-01-10T02:50:26;-4.70;99.90
25582;DHT22;13462;50.764;4.332;2024-01-10T02:53:08;-4.70;99.90
25582;DHT22;13462;50.764;4.332;2024-01-10T02:55:57;-4.70;99.90
25582;DHT22;13462;50.764;4.332;2024-01-10T03:28:38;-4.90;99.90
25582;DHT22;13462;50.764;4.332;2024-01-10T05:07:34;-5.50;99.90
25582;DHT22;13462;50.764;4.332;2024-01-10T05:10:00;-5.40;99.90
25582;DHT22;13462;50.764;4.332;2024-01-10T05:12:25;-5.40;99.90
25582;DHT22;13462;50.764;4.332;2024-01-10T05:14:51;-5.40;99.90
25582;DHT22;13462;50.764;4.332;2024-01-10T05:17:17;-5.50;99.90
25582;DHT22;13462;50.764;4.332;2024-01-10T05:19:43;-5.50;99.90
25582;DHT22;13462;50.764;4.332;2024-01-10T05:22:10;-5.40;99.90
25582;DHT22;13462;50.764;4.332;2024-01-10T05:24:36;-5.50;99.90
25582;DHT22;13462;50.764;4.332;2024-01-10T05:27:02;-5.40;99.90
25582;DHT22;13462;50.764;4.332;2024-01-10T05:29:28;-5.40;99.90
25582;DHT22;13462;50.764;4.332;2024-01-10T05:31:53;-5.40;99.90
25582;DHT22;13462;50.764;4.332;2024-01-10T05:34:19;-5.40;99.90
25582;DHT22;13462;50.764;4.332;2024-01-10T05:36:45;-5.50;99.90
25582;DHT22;13462;50.764;4.332;2024-01-10T05:39:10;-5.50;99.90
25582;DHT22;13462;50.764;4.332;2024-01-10T05:41:36;-5.40;99.90
25582;DHT22;13462;50.764;4.332;2024-01-10T05:44:01;-5.30;99.90
25582;DHT22;13462;50.764;4.332;2024-01-10T05:46:30;-5.40;99.90
25582;DHT22;13462;50.764;4.332;2024-01-10T05:48:56;-5.30;99.90
25582;DHT22;13462;50.764;4.332;2024-01-10T05:51:33;-5.30;99.90
25582;DHT22;13462;50.764;4.332;2024-01-10T06:05:02;-5.30;99.90
25582;DHT22;13462;50.764;4.332;2024-01-10T06:24:57;-5.30;99.90
25582;DHT22;13462;50.764;4.332;2024-01-10T06:34:51;-5.20;99.90
25582;DHT22;13462;50.764;4.332;2024-01-10T07:04:52;-5.40;99.90
25582;DHT22;13462;50.764;4.332;2024-01-10T07:08:36;-5.30;99.90
25582;DHT22;13462;50.764;4.332;2024-01-10T07:31:27;-5.30;99.90
25582;DHT22;13462;50.764;4.332;2024-01-10T08:28:30;-4.90;99.90
25582;DHT22;13462;50.764;4.332;2024-01-10T08:57:17;-4.30;99.90
25582;DHT22;13462;50.764;4.332;2024-01-10T09:06:14;-4.00;99.90
25582;DHT22;13462;50.764;4.332;2024-01-10T09:08:40;-3.90;99.90
25582;DHT22;13462;50.764;4.332;2024-01-10T09:14:07;-3.60;99.90
25582;DHT22;13462;50.764;4.332;2024-01-10T09:16:47;-3.50;99.90
25582;DHT22;13462;50.764;4.332;2024-01-10T09:19:20;-3.20;99.90
25582;DHT22;13462;50.764;4.332;2024-01-10T09:49:19;7.20;79.90
25582;DHT22;13462;50.764;4.332;2024-01-10T09:52:04;7.40;75.70
25582;DHT22;13462;50.764;4.332;2024-01-10T09:54:34;7.90;74.00
25582;DHT22;13462;50.764;4.332;2024-01-10T09:57:02;8.70;72.40
25582;DHT22;13462;50.764;4.332;2024-01-10T09:59:42;9.20;69.20
25582;DHT22;13462;50.764;4.332;2024-01-10T10:02:56;9.00;67.60
25582;DHT22;13462;50.764;4.332;2024-01-10T10:36:38;10.80;59.90
25582;DHT22;13462;50.764;4.332;2024-01-10T10:49:03;11.10;55.50
25582;DHT22;13462;50.764;4.332;2024-01-10T10:52:17;11.50;56.30
25582;DHT22;13462;50.764;4.332;2024-01-10T10:54:46;12.10;54.80
25582;DHT22;13462;50.764;4.332;2024-01-10T10:57:21;12.40;54.50
25582;DHT22;13462;50.764;4.332;2024-01-10T11:26:16;7.80;61.80
25582;DHT22;13462;50.764;4.332;2024-01-10T11:28:43;7.50;61.10
25582;DHT22;13462;50.764;4.332;2024-01-10T11:31:09;7.30;62.30
25582;DHT22;13462;50.764;4.332;2024-01-10T11:33:36;7.20;63.70
25582;DHT22;13462;50.764;4.332;2024-01-10T11:36:15;6.80;63.40
25582;DHT22;13462;50.764;4.332;2024-01-10T11:39:03;6.20;64.90
25582;DHT22;13462;50.764;4.332;2024-01-10T11:41:29;5.40;66.40
25582;DHT22;13462;50.764;4.332;2024-01-10T11:44:27;4.80;69.00
25582;DHT22;13462;50.764;4.332;2024-01-10T11:46:54;4.60;70.60
25582;DHT22;13462;50.764;4.332;2024-01-10T11:49:22;4.10;71.30
25582;DHT22;13462;50.764;4.332;2024-01-10T11:51:58;3.60;72.20
25582;DHT22;13462;50.764;4.332;2024-01-10T11:54:43;3.20;74.70
25582;DHT22;13462;50.764;4.332;2024-01-10T11:59:44;2.70;78.00
25582;DHT22;13462;50.764;4.332;2024-01-10T12:02:14;2.50;79.40
25582;DHT22;13462;50.764;4.332;2024-01-10T12:04:40;2.40;81.90
25582;DHT22;13462;50.764;4.332;2024-01-10T12:07:07;2.10;82.50
25582;DHT22;13462;50.764;4.332;2024-01-10T12:09:34;2.20;83.40
25582;DHT22;13462;50.764;4.332;2024-01-10T12:12:00;2.30;81.80
25582;DHT22;13462;50.764;4.332;2024-01-10T12:14:26;2.40;81.80
25582;DHT22;13462;50.764;4.332;2024-01-10T12:16:52;2.80;81.90
25582;DHT22;13462;50.764;4.332;2024-01-10T12:19:18;3.20;80.90
25582;DHT22;13462;50.764;4.332;2024-01-10T12:21:44;3.80;79.60
25582;DHT22;13462;50.764;4.332;2024-01-10T12:24:09;4.40;77.80
25582;DHT22;13462;50.764;4.332;2024-01-10T12:26:35;4.60;76.50
25582;DHT22;13462;50.764;4.332;2024-01-10T12:29:03;4.80;74.80
25582;DHT22;13462;50.764;4.332;2024-01-10T12:31:31;4.50;74.90
25582;DHT22;13462;50.764;4.332;2024-01-10T12:34:00;4.40;75.40
25582;DHT22;13462;50.764;4.332;2024-01-10T12:36:25;4.40;75.90
25582;DHT22;13462;50.764;4.332;2024-01-10T12:38:51;4.40;75.20
25582;DHT22;13462;50.764;4.332;2024-01-10T12:41:20;4.80;75.70
25582;DHT22;13462;50.764;4.332;2024-01-10T12:43:52;5.40;75.50
25582;DHT22;13462;50.764;4.332;2024-01-10T12:46:17;6.80;73.00
25582;DHT22;13462;50.764;4.332;2024-01-10T12:48:43;8.00;68.00
25582;DHT22;13462;50.764;4.332;2024-01-10T12:51:12;9.70;65.00
25582;DHT22;13462;50.764;4.332;2024-01-10T12:53:43;10.30;61.60
25582;DHT22;13462;50.764;4.332;2024-01-10T12:56:10;11.60;59.40
25582;DHT22;13462;50.764;4.332;2024-01-10T12:58:40;11.90;57.60
25582;DHT22;13462;50.764;4.332;2024-01-10T13:01:09;11.30;56.10
25582;DHT22;13462;50.764;4.332;2024-01-10T13:03:35;12.00;57.50
25582;DHT22;13462;50.764;4.332;2024-01-10T13:06:00;13.30;56.10
25582;DHT22;13462;50.764;4.332;2024-01-10T13:08:27;13.40;52.50
25582;DHT22;13462;50.764;4.332;2024-01-10T13:10:52;13.30;52.60
25582;DHT22;13462;50.764;4.332;2024-01-10T13:13:19;13.00;52.00
25582;DHT22;13462;50.764;4.332;2024-01-10T13:15:47;12.50;52.30
25582;DHT22;13462;50.764;4.332;2024-01-10T13:18:13;12.50;53.00
25582;DHT22;13462;50.764;4.332;2024-01-10T13:20:40;13.00;53.20
25582;DHT22;13462;50.764;4.332;2024-01-10T13:23:06;13.50;52.50
25582;DHT22;13462;50.764;4.332;2024-01-10T13:25:33;13.80;50.60
25582;DHT22;13462;50.764;4.332;2024-01-10T13:27:59;12.70;50.70
25582;DHT22;13462;50.764;4.332;2024-01-10T13:30:26;12.60;51.30
25582;DHT22;13462;50.764;4.332;2024-01-10T13:32:52;12.40;51.40
25582;DHT22;13462;50.764;4.332;2024-01-10T13:35:18;12.00;52.10
25582;DHT22;13462;50.764;4.332;2024-01-10T13:37:44;11.90;52.10
25582;DHT22;13462;50.764;4.332;2024-01-10T13:40:10;11.90;53.00
25582;DHT22;13462;50.764;4.332;2024-01-10T13:42:38;11.50;52.50
25582;DHT22;13462;50.764;4.332;2024-01-10T13:45:05;11.40;53.80
25582;DHT22;13462;50.764;4.332;2024-01-10T13:47:32;11.30;53.40
25582;DHT22;13462;50.764;4.332;2024-01-10T13:50:00;10.60;54.30
25582;DHT22;13462;50.764;4.332;2024-01-10T13:52:28;10.70;54.70
25582;DHT22;13462;50.764;4.332;2024-01-10T13:54:53;10.80;54.70
25582;DHT22;13462;50.764;4.332;2024-01-10T13:57:19;10.50;54.30
25582;DHT22;13462;50.764;4.332;2024-01-10T13:59:45;10.40;54.50
25582;DHT22;13462;50.764;4.332;2024-01-10T14:02:12;10.30;55.10
25582;DHT22;13462;50.764;4.332;2024-01-10T14:04:38;10.10;55.80
25582;DHT22;13462;50.764;4.332;2024-01-10T14:07:03;10.30;55.80
25582;DHT22;13462;50.764;4.332;2024-01-10T14:09:30;10.70;55.70
25582;DHT22;13462;50.764;4.332;2024-01-10T14:11:56;10.10;55.20
25582;DHT22;13462;50.764;4.332;2024-01-10T14:14:22;10.00;55.30
25582;DHT22;13462;50.764;4.332;2024-01-10T14:16:48;9.80;56.10
25582;DHT22;13462;50.764;4.332;2024-01-10T14:19:13;9.20;56.70
25582;DHT22;13462;50.764;4.332;2024-01-10T14:21:39;8.50;57.40
25582;DHT22;13462;50.764;4.332;2024-01-10T14:24:04;8.00;58.90
25582;DHT22;13462;50.764;4.332;2024-01-10T14:26:30;7.20;60.20
25582;DHT22;13462;50.764;4.332;2024-01-10T14:28:56;6.80;62.00
25582;DHT22;13462;50.764;4.332;2024-01-10T14:31:22;6.30;62.50
25582;DHT22;13462;50.764;4.332;2024-01-10T14:33:48;5.80;64.00
25582;DHT22;13462;50.764;4.332;2024-01-10T14:36:14;4.90;66.00
25582;DHT22;13462;50.764;4.332;2024-01-10T14:38:40;4.30;68.80
25582;DHT22;13462;50.764;4.332;2024-01-10T14:41:07;3.80;70.70
25582;DHT22;13462;50.764;4.332;2024-01-10T14:43:33;3.40;72.40
25582;DHT22;13462;50.764;4.332;2024-01-10T14:45:59;3.00;74.40
25582;DHT22;13462;50.764;4.332;2024-01-10T14:48:24;2.70;75.50
25582;DHT22;13462;50.764;4.332;2024-01-10T14:50:50;2.40;77.40
25582;DHT22;13462;50.764;4.332;2024-01-10T14:53:16;2.00;79.10
25582;DHT22;13462;50.764;4.332;2024-01-10T14:55:41;1.80;81.20
25582;DHT22;13462;50.764;4.332;2024-01-10T14:58:07;1.60;82.90
25582;DHT22;13462;50.764;4.332;2024-01-10T15:00:33;1.50;84.20
25582;DHT22;13462;50.764;4.332;2024-01-10T15:02:58;1.40;85.10
25582;DHT22;13462;50.764;4.332;2024-01-10T15:05:24;1.30;85.80
25582;DHT22;13462;50.764;4.332;2024-01-10T15:07:51;1.30;87.10
25582;DHT22;13462;50.764;4.332;2024-01-10T15:10:16;1.30;88.00
25582;DHT22;13462;50.764;4.332;2024-01-10T15:12:42;1.20;88.70
25582;DHT22;13462;50.764;4.332;2024-01-10T15:15:09;1.30;88.90
25582;DHT22;13462;50.764;4.332;2024-01-10T15:17:35;1.20;89.70
25582;DHT22;13462;50.764;4.332;2024-01-10T15:20:00;1.20;90.30
25582;DHT22;13462;50.764;4.332;2024-01-10T15:22:26;1.10;90.30
25582;DHT22;13462;50.764;4.332;2024-01-10T15:24:53;1.00;90.40
25582;DHT22;13462;50.764;4.332;2024-01-10T15:27:18;0.90;90.60
25582;DHT22;13462;50.764;4.332;2024-01-10T15:29:44;0.80;90.90
25582;DHT22;13462;50.764;4.332;2024-01-10T15:32:10;0.70;91.30
25582;DHT22;13462;50.764;4.332;2024-01-10T15:34:35;0.70;91.50
25582;DHT22;13462;50.764;4.332;2024-01-10T15:37:01;0.70;91.60
25582;DHT22;13462;50.764;4.332;2024-01-10T15:39:26;0.60;92.10
25582;DHT22;13462;50.764;4.332;2024-01-10T15:41:52;0.60;92.30
25582;DHT22;13462;50.764;4.332;2024-01-10T15:44:19;0.60;92.70
25582;DHT22;13462;50.764;4.332;2024-01-10T15:46:45;0.70;92.30
25582;DHT22;13462;50.764;4.332;2024-01-10T15:49:11;0.60;92.40
25582;DHT22;13462;50.764;4.332;2024-01-10T15:51:37;0.60;92.60
25582;DHT22;13462;50.764;4.332;2024-01-10T15:54:03;0.60;92.60
25582;DHT22;13462;50.764;4.332;2024-01-10T15:56:29;0.50;93.00
25582;DHT22;13462;50.764;4.332;2024-01-10T15:58:55;0.50;93.30
25582;DHT22;13462;50.764;4.332;2024-01-10T16:01:22;0.40;93.50
25582;DHT22;13462;50.764;4.332;2024-01-10T16:03:49;0.30;93.70
25582;DHT22;13462;50.764;4.332;2024-01-10T16:06:15;0.30;94.20
25582;DHT22;13462;50.764;4.332;2024-01-10T16:08:42;0.10;94.50
25582;DHT22;13462;50.764;4.332;2024-01-10T16:11:08;0.10;94.70
25582;DHT22;13462;50.764;4.332;2024-01-10T16:13:35;0.10;94.80
25582;DHT22;13462;50.764;4.332;2024-01-10T16:16:00;0.10;95.20
25582;DHT22;13462;50.764;4.332;2024-01-10T16:18:30;0.10;95.40
25582;DHT22;13462;50.764;4.332;2024-01-10T16:20:55;-0.10;95.60
25582;DHT22;13462;50.764;4.332;2024-01-10T16:23:21;-0.20;96.00
25582;DHT22;13462;50.764;4.332;2024-01-10T16:25:46;-0.30;96.50
25582;DHT22;13462;50.764;4.332;2024-01-10T16:28:12;-0.40;96.90
25582;DHT22;13462;50.764;4.332;2024-01-10T16:30:38;-0.40;97.20
25582;DHT22;13462;50.764;4.332;2024-01-10T16:33:04;-0.50;97.80
25582;DHT22;13462;50.764;4.332;2024-01-10T16:35:30;-0.60;98.00
25582;DHT22;13462;50.764;4.332;2024-01-10T16:37:56;-0.70;98.30
25582;DHT22;13462;50.764;4.332;2024-01-10T16:40:21;-0.70;98.60
25582;DHT22;13462;50.764;4.332;2024-01-10T16:42:47;-0.80;99.00
25582;DHT22;13462;50.764;4.332;2024-01-10T16:45:13;-0.80;99.10
25582;DHT22;13462;50.764;4.332;2024-01-10T16:47:38;-0.80;99.30
25582;DHT22;13462;50.764;4.332;2024-01-10T16:50:05;-0.80;99.60
25582;DHT22;13462;50.764;4.332;2024-01-10T16:52:30;-0.80;99.60
25582;DHT22;13462;50.764;4.332;2024-01-10T16:54:56;-0.90;99.90
25582;DHT22;13462;50.764;4.332;2024-01-10T16:57:24;-0.90;99.90
25582;DHT22;13462;50.764;4.332;2024-01-10T16:59:50;-1.00;99.90
25582;DHT22;13462;50.764;4.332;2024-01-10T17:02:18;-1.00;99.90
25582;DHT22;13462;50.764;4.332;2024-01-10T17:04:44;-1.00;99.90
25582;DHT22;13462;50.764;4.332;2024-01-10T17:07:15;-0.90;99.90
25582;DHT22;13462;50.764;4.332;2024-01-10T17:09:41;-1.00;99.90
25582;DHT22;13462;50.764;4.332;2024-01-10T17:12:18;-1.10;99.90
25582;DHT22;13462;50.764;4.332;2024-01-10T17:14:44;-1.10;99.90
25582;DHT22;13462;50.764;4.332;2024-01-10T17:20:17;-1.20;99.90
25582;DHT22;13462;50.764;4.332;2024-01-10T17:22:43;-1.20;99.90
25582;DHT22;13462;50.764;4.332;2024-01-10T17:25:09;-1.20;99.90
25582;DHT22;13462;50.764;4.332;2024-01-10T17:30:34;-1.40;99.90
25582;DHT22;13462;50.764;4.332;2024-01-10T17:33:05;-1.40;99.90
25582;DHT22;13462;50.764;4.332;2024-01-10T17:52:32;-1.50;99.90
25582;DHT22;13462;50.764;4.332;2024-01-10T18:05:49;-1.60;99.90
25582;DHT22;13462;50.764;4.332;2024-01-10T18:08:38;-1.60;99.90
25582;DHT22;13462;50.764;4.332;2024-01-10T19:15:28;-2.00;99.90
25582;DHT22;13462;50.764;4.332;2024-01-10T19:35:47;-2.00;99.90
25582;DHT22;13462;50.764;4.332;2024-01-10T19:38:17;-2.10;99.90
25582;DHT22;13462;50.764;4.332;2024-01-10T19:40:48;-2.10;99.90
25582;DHT22;13462;50.764;4.332;2024-01-10T19:46:34;-2.00;99.90
25582;DHT22;13462;50.764;4.332;2024-01-10T19:55:55;-2.10;99.90
25582;DHT22;13462;50.764;4.332;2024-01-10T19:58:46;-2.00;99.90
25582;DHT22;13462;50.764;4.332;2024-01-10T20:08:41;-2.00;99.90
25582;DHT22;13462;50.764;4.332;2024-01-10T20:11:28;-2.10;99.90
25582;DHT22;13462;50.764;4.332;2024-01-10T20:17:49;-2.10;99.90
25582;DHT22;13462;50.764;4.332;2024-01-10T20:20:26;-2.00;99.90
25582;DHT22;13462;50.764;4.332;2024-01-10T20:26:16;-2.00;99.90
25582;DHT22;13462;50.764;4.332;2024-01-10T20:35:56;-2.00;99.90
25582;DHT22;13462;50.764;4.332;2024-01-10T20:38:41;-2.00;99.90
25582;DHT22;13462;50.764;4.332;2024-01-10T20:51:41;-2.20;99.90
25582;DHT22;13462;50.764;4.332;2024-01-10T20:54:12;-2.10;99.90
25582;DHT22;13462;50.764;4.332;2024-01-10T20:57:05;-2.20;99.90
25582;DHT22;13462;50.764;4.332;2024-01-10T21:02:59;-2.20;99.90
25582;DHT22;13462;50.764;4.332;2024-01-10T21:15:44;-2.20;99.90
25582;DHT22;13462;50.764;4.332;2024-01-10T21:21:58;-2.20;99.90
25582;DHT22;13462;50.764;4.332;2024-01-10T21:24:24;-2.30;99.90
25582;DHT22;13462;50.764;4.332;2024-01-10T21:26:52;-2.20;99.90
25582;DHT22;13462;50.764;4.332;2024-01-10T21:29:18;-2.30;99.90
25582;DHT22;13462;50.764;4.332;2024-01-10T21:31:43;-2.30;99.90
25582;DHT22;13462;50.764;4.332;2024-01-10T21:34:09;-2.20;99.90
25582;DHT22;13462;50.764;4.332;2024-01-10T21:36:35;-2.20;99.90
25582;DHT22;13462;50.764;4.332;2024-01-10T21:39:00;-2.10;99.90
25582;DHT22;13462;50.764;4.332;2024-01-10T21:41:26;-2.30;99.90
25582;DHT22;13462;50.764;4.332;2024-01-10T21:43:52;-2.20;99.90
25582;DHT22;13462;50.764;4.332;2024-01-10T21:46:20;-2.30;99.90
25582;DHT22;13462;50.764;4.332;2024-01-10T21:48:47;-2.30;99.90
25582;DHT22;13462;50.764;4.332;2024-01-10T21:51:13;-2.20;99.90
25582;DHT22;13462;50.764;4.332;2024-01-10T21:53:39;-2.20;99.90
25582;DHT22;13462;50.764;4.332;2024-01-10T21:56:05;-2.20;99.90
25582;DHT22;13462;50.764;4.332;2024-01-10T21:58:31;-2.20;99.90
25582;DHT22;13462;50.764;4.332;2024-01-10T22:00:57;-2.20;99.90
25582;DHT22;13462;50.764;4.332;2024-01-10T22:03:22;-2.20;99.90
25582;DHT22;13462;50.764;4.332;2024-01-10T22:05:48;-2.10;99.90
25582;DHT22;13462;50.764;4.332;2024-01-10T22:08:16;-2.20;99.90
25582;DHT22;13462;50.764;4.332;2024-01-10T22:10:41;-2.30;99.90
25582;DHT22;13462;50.764;4.332;2024-01-10T22:13:07;-2.30;99.90
25582;DHT22;13462;50.764;4.332;2024-01-10T22:15:34;-2.40;99.90
25582;DHT22;13462;50.764;4.332;2024-01-10T22:18:00;-2.30;99.90
25582;DHT22;13462;50.764;4.332;2024-01-10T22:20:25;-2.40;99.90
25582;DHT22;13462;50.764;4.332;2024-01-10T22:22:51;-2.40;99.90
25582;DHT22;13462;50.764;4.332;2024-01-10T22:25:17;-2.30;99.90
25582;DHT22;13462;50.764;4.332;2024-01-10T22:27:44;-2.20;99.90
25582;DHT22;13462;50.764;4.332;2024-01-10T22:30:10;-2.20;99.90
25582;DHT22;13462;50.764;4.332;2024-01-10T22:32:36;-2.20;99.90
25582;DHT22;13462;50.764;4.332;2024-01-10T22:35:02;-2.20;99.90
25582;DHT22;13462;50.764;4.332;2024-01-10T22:37:27;-2.20;99.90
25582;DHT22;13462;50.764;4.332;2024-01-10T22:39:53;-2.20;99.90
25582;DHT22;13462;50.764;4.332;2024-01-10T22:42:19;-2.30;99.90
25582;DHT22;13462;50.764;4.332;2024-01-10T22:44:44;-2.30;99.90
25582;DHT22;13462;50.764;4.332;2024-01-10T22:47:10;-2.30;99.90
25582;DHT22;13462;50.764;4.332;2024-01-10T22:49:35;-2.40;99.90
25582;DHT22;13462;50.764;4.332;2024-01-10T22:52:01;-2.50;99.90
25582;DHT22;13462;50.764;4.332;2024-01-10T22:54:27;-2.50;99.90
25582;DHT22;13462;50.764;4.332;2024-01-10T22:56:52;-2.50;99.90
25582;DHT22;13462;50.764;4.332;2024-01-10T22:59:18;-2.70;99.90
25582;DHT22;13462;50.764;4.332;2024-01-10T23:01:43;-2.80;99.90
25582;DHT22;13462;50.764;4.332;2024-01-10T23:04:09;-2.80;99.90
25582;DHT22;13462;50.764;4.332;2024-01-10T23:06:35;-2.80;99.90
25582;DHT22;13462;50.764;4.332;2024-01-10T23:09:01;-2.90;99.90
25582;DHT22;13462;50.764;4.332;2024-01-10T23:11:26;-2.80;99.90
25582;DHT22;13462;50.764;4.332;2024-01-10T23:13:52;-2.80;99.90
25582;DHT22;13462;50.764;4.332;2024-01-10T23:16:18;-2.70;99.90
25582;DHT22;13462;50.764;4.332;2024-01-10T23:18:43;-2.60;99.90
25582;DHT22;13462;50.764;4.332;2024-01-10T23:21:09;-2.60;99.90
25582;DHT22;13462;50.764;4.332;2024-01-10T23:23:35;-2.70;99.90
25582;DHT22;13462;50.764;4.332;2024-01-10T23:26:05;-2.70;99.90
25582;DHT22;13462;50.764;4.332;2024-01-10T23:28:32;-2.60;99.90
25582;DHT22;13462;50.764;4.332;2024-01-10T23:30:58;-2.70;99.90
25582;DHT22;13462;50.764;4.332;2024-01-10T23:33:24;-2.80;99.90
25582;DHT22;13462;50.764;4.332;2024-01-10T23:35:52;-2.80;99.90
25582;DHT22;13462;50.764;4.332;2024-01-10T23:38:18;-3.00;99.90
25582;DHT22;13462;50.764;4.332;2024-01-10T23:40:43;-3.00;99.90
25582;DHT22;13462;50.764;4.332;2024-01-10T23:43:10;-3.00;99.90
25582;DHT22;13462;50.764;4.332;2024-01-10T23:45:36;-2.90;99.90
25582;DHT22;13462;50.764;4.332;2024-01-10T23:48:02;-3.00;99.90
25582;DHT22;13462;50.764;4.332;2024-01-10T23:50:27;-2.90;99.90
25582;DHT22;13462;50.764;4.332;2024-01-10T23:52:53;-3.00;99.90
25582;DHT22;13462;50.764;4.332;2024-01-10T23:55:18;-3.00;99.90
25582;DHT22;13462;50.764;4.332;2024-01-10T23:57:44;-3.00;99.90
